sensor_id;sensor_type;location;lat;lon;timestamp;P1;durP1;ratioP1;P2;durP2;ratioP2
72301;SDS011;60235;52.234;5.186;2023-08-06T00:00:25;20.88;;;8.23;;
72301;SDS011;60235;52.234;5.186;2023-08-06T00:02:51;15.00;;;7.50;;
72301;SDS011;60235;52.234;5.186;2023-08-06T00:05:17;15.70;;;7.55;;
72301;SDS011;60235;52.234;5.186;2023-08-06T00:07:43;16.63;;;8.43;;
72301;SDS011;60235;52.234;5.186;2023-08-06T00:10:10;16.77;;;8.73;;
72301;SDS011;60235;52.234;5.186;2023-08-06T00:12:36;14.93;;;8.27;;
72301;SDS011;60235;52.234;5.186;2023-08-06T00:15:02;15.13;;;7.38;;
72301;SDS011;60235;52.234;5.186;2023-08-06T00:17:28;18.00;;;8.57;;
72301;SDS011;60235;52.234;5.186;2023-08-06T00:19:54;15.85;;;8.23;;
72301;SDS011;60235;52.234;5.186;2023-08-06T00:22:20;18.50;;;8.45;;
72301;SDS011;60235;52.234;5.186;2023-08-06T00:24:46;17.08;;;7.47;;
72301;SDS011;60235;52.234;5.186;2023-08-06T00:27:12;17.02;;;8.48;;
72301;SDS011;60235;52.234;5.186;2023-08-06T00:29:38;17.55;;;8.93;;
72301;SDS011;60235;52.234;5.186;2023-08-06T00:32:04;17.83;;;8.68;;
72301;SDS011;60235;52.234;5.186;2023-08-06T00:34:30;18.10;;;9.02;;
72301;SDS011;60235;52.234;5.186;2023-08-06T00:36:56;19.13;;;8.80;;
72301;SDS011;60235;52.234;5.186;2023-08-06T00:39:22;17.70;;;8.45;;
72301;SDS011;60235;52.234;5.186;2023-08-06T00:41:48;17.65;;;8.82;;
72301;SDS011;60235;52.234;5.186;2023-08-06T00:44:14;16.50;;;8.65;;
72301;SDS011;60235;52.234;5.186;2023-08-06T00:46:40;27.67;;;8.55;;
72301;SDS011;60235;52.234;5.186;2023-08-06T00:49:06;17.55;;;7.88;;
72301;SDS011;60235;52.234;5.186;2023-08-06T00:51:32;16.65;;;9.07;;
72301;SDS011;60235;52.234;5.186;2023-08-06T00:53:59;16.35;;;8.55;;
72301;SDS011;60235;52.234;5.186;2023-08-06T00:56:25;17.65;;;7.65;;
72301;SDS011;60235;52.234;5.186;2023-08-06T00:58:51;14.45;;;7.47;;
72301;SDS011;60235;52.234;5.186;2023-08-06T01:01:17;15.77;;;7.85;;
72301;SDS011;60235;52.234;5.186;2023-08-06T01:03:43;15.25;;;6.50;;
72301;SDS011;60235;52.234;5.186;2023-08-06T01:06:10;16.55;;;7.45;;
72301;SDS011;60235;52.234;5.186;2023-08-06T01:14:05;16.10;;;7.07;;
72301;SDS011;60235;52.234;5.186;2023-08-06T01:16:31;20.52;;;7.15;;
72301;SDS011;60235;52.234;5.186;2023-08-06T01:18:58;15.57;;;7.25;;
72301;SDS011;60235;52.234;5.186;2023-08-06T01:21:24;16.42;;;7.43;;
72301;SDS011;60235;52.234;5.186;2023-08-06T01:23:50;15.68;;;7.15;;
72301;SDS011;60235;52.234;5.186;2023-08-06T01:26:24;13.02;;;6.50;;
72301;SDS011;60235;52.234;5.186;2023-08-06T01:31:35;15.27;;;6.95;;
72301;SDS011;60235;52.234;5.186;2023-08-06T01:34:03;15.68;;;7.15;;
72301;SDS011;60235;52.234;5.186;2023-08-06T01:36:29;16.35;;;6.97;;
72301;SDS011;60235;52.234;5.186;2023-08-06T01:38:56;18.77;;;7.45;;
72301;SDS011;60235;52.234;5.186;2023-08-06T01:41:22;15.57;;;7.72;;
72301;SDS011;60235;52.234;5.186;2023-08-06T01:43:48;14.25;;;7.32;;
72301;SDS011;60235;52.234;5.186;2023-08-06T01:46:14;14.07;;;7.07;;
72301;SDS011;60235;52.234;5.186;2023-08-06T01:48:40;16.60;;;7.07;;
72301;SDS011;60235;52.234;5.186;2023-08-06T01:51:06;14.38;;;7.03;;
72301;SDS011;60235;52.234;5.186;2023-08-06T01:53:33;16.25;;;7.82;;
72301;SDS011;60235;52.234;5.186;2023-08-06T01:55:59;18.33;;;8.48;;
72301;SDS011;60235;52.234;5.186;2023-08-06T01:58:25;16.85;;;8.15;;
72301;SDS011;60235;52.234;5.186;2023-08-06T02:00:51;15.93;;;7.97;;
72301;SDS011;60235;52.234;5.186;2023-08-06T02:03:17;17.63;;;8.25;;
72301;SDS011;60235;52.234;5.186;2023-08-06T02:05:43;17.90;;;8.18;;
72301;SDS011;60235;52.234;5.186;2023-08-06T02:08:10;16.95;;;8.02;;
72301;SDS011;60235;52.234;5.186;2023-08-06T02:10:36;20.60;;;9.35;;
72301;SDS011;60235;52.234;5.186;2023-08-06T02:13:02;21.67;;;8.48;;
72301;SDS011;60235;52.234;5.186;2023-08-06T02:15:28;18.88;;;8.05;;
72301;SDS011;60235;52.234;5.186;2023-08-06T02:17:54;17.52;;;8.65;;
72301;SDS011;60235;52.234;5.186;2023-08-06T02:20:20;22.02;;;9.02;;
72301;SDS011;60235;52.234;5.186;2023-08-06T02:22:46;20.55;;;9.10;;
72301;SDS011;60235;52.234;5.186;2023-08-06T02:25:12;18.75;;;8.57;;
72301;SDS011;60235;52.234;5.186;2023-08-06T02:27:38;18.25;;;8.45;;
72301;SDS011;60235;52.234;5.186;2023-08-06T02:30:05;23.15;;;9.13;;
72301;SDS011;60235;52.234;5.186;2023-08-06T02:32:31;19.38;;;8.95;;
72301;SDS011;60235;52.234;5.186;2023-08-06T02:34:58;21.95;;;9.77;;
72301;SDS011;60235;52.234;5.186;2023-08-06T02:37:24;20.13;;;9.30;;
72301;SDS011;60235;52.234;5.186;2023-08-06T02:39:50;19.30;;;9.52;;
72301;SDS011;60235;52.234;5.186;2023-08-06T02:42:16;21.10;;;9.48;;
72301;SDS011;60235;52.234;5.186;2023-08-06T02:44:42;20.48;;;10.30;;
72301;SDS011;60235;52.234;5.186;2023-08-06T02:47:08;23.08;;;10.45;;
72301;SDS011;60235;52.234;5.186;2023-08-06T02:49:34;21.73;;;11.02;;
72301;SDS011;60235;52.234;5.186;2023-08-06T02:52:00;19.45;;;9.48;;
72301;SDS011;60235;52.234;5.186;2023-08-06T02:54:26;22.92;;;10.35;;
72301;SDS011;60235;52.234;5.186;2023-08-06T02:56:52;19.90;;;9.30;;
72301;SDS011;60235;52.234;5.186;2023-08-06T02:59:18;25.10;;;10.48;;
72301;SDS011;60235;52.234;5.186;2023-08-06T03:01:44;23.30;;;11.90;;
72301;SDS011;60235;52.234;5.186;2023-08-06T03:04:10;22.33;;;10.93;;
72301;SDS011;60235;52.234;5.186;2023-08-06T03:06:36;23.73;;;10.95;;
72301;SDS011;60235;52.234;5.186;2023-08-06T03:09:02;18.45;;;9.43;;
72301;SDS011;60235;52.234;5.186;2023-08-06T03:11:28;21.58;;;10.02;;
72301;SDS011;60235;52.234;5.186;2023-08-06T03:13:54;25.40;;;11.05;;
72301;SDS011;60235;52.234;5.186;2023-08-06T03:16:20;22.15;;;10.45;;
72301;SDS011;60235;52.234;5.186;2023-08-06T03:18:46;21.58;;;10.35;;
72301;SDS011;60235;52.234;5.186;2023-08-06T03:21:12;22.27;;;9.82;;
72301;SDS011;60235;52.234;5.186;2023-08-06T03:23:38;21.48;;;10.63;;
72301;SDS011;60235;52.234;5.186;2023-08-06T03:26:04;24.25;;;11.45;;
72301;SDS011;60235;52.234;5.186;2023-08-06T03:28:30;22.88;;;10.45;;
72301;SDS011;60235;52.234;5.186;2023-08-06T03:31:00;21.88;;;10.13;;
72301;SDS011;60235;52.234;5.186;2023-08-06T03:33:26;21.20;;;9.48;;
72301;SDS011;60235;52.234;5.186;2023-08-06T03:35:52;20.38;;;10.15;;
72301;SDS011;60235;52.234;5.186;2023-08-06T03:38:19;22.17;;;10.07;;
72301;SDS011;60235;52.234;5.186;2023-08-06T03:40:48;20.80;;;9.93;;
72301;SDS011;60235;52.234;5.186;2023-08-06T03:43:14;19.75;;;10.18;;
72301;SDS011;60235;52.234;5.186;2023-08-06T03:45:40;18.95;;;9.50;;
72301;SDS011;60235;52.234;5.186;2023-08-06T03:48:07;21.02;;;9.20;;
72301;SDS011;60235;52.234;5.186;2023-08-06T03:50:33;18.75;;;8.55;;
72301;SDS011;60235;52.234;5.186;2023-08-06T03:52:59;21.08;;;9.65;;
72301;SDS011;60235;52.234;5.186;2023-08-06T03:55:25;17.63;;;8.85;;
72301;SDS011;60235;52.234;5.186;2023-08-06T03:57:51;17.25;;;9.18;;
72301;SDS011;60235;52.234;5.186;2023-08-06T04:00:17;15.85;;;8.48;;
72301;SDS011;60235;52.234;5.186;2023-08-06T04:02:43;18.92;;;9.23;;
72301;SDS011;60235;52.234;5.186;2023-08-06T04:05:09;17.83;;;9.43;;
72301;SDS011;60235;52.234;5.186;2023-08-06T04:07:35;20.70;;;9.48;;
72301;SDS011;60235;52.234;5.186;2023-08-06T04:10:01;18.45;;;9.07;;
72301;SDS011;60235;52.234;5.186;2023-08-06T04:12:28;18.48;;;8.65;;
72301;SDS011;60235;52.234;5.186;2023-08-06T04:14:55;17.20;;;8.30;;
72301;SDS011;60235;52.234;5.186;2023-08-06T04:17:22;16.38;;;8.30;;
72301;SDS011;60235;52.234;5.186;2023-08-06T04:19:52;18.17;;;9.07;;
72301;SDS011;60235;52.234;5.186;2023-08-06T04:22:18;18.13;;;8.65;;
72301;SDS011;60235;52.234;5.186;2023-08-06T04:24:44;15.68;;;8.52;;
72301;SDS011;60235;52.234;5.186;2023-08-06T04:27:10;17.60;;;8.68;;
72301;SDS011;60235;52.234;5.186;2023-08-06T04:29:37;19.85;;;8.55;;
72301;SDS011;60235;52.234;5.186;2023-08-06T04:32:03;16.70;;;8.02;;
72301;SDS011;60235;52.234;5.186;2023-08-06T04:34:29;15.00;;;7.53;;
72301;SDS011;60235;52.234;5.186;2023-08-06T04:36:55;15.27;;;7.82;;
72301;SDS011;60235;52.234;5.186;2023-08-06T04:39:21;17.20;;;8.00;;
72301;SDS011;60235;52.234;5.186;2023-08-06T04:41:47;17.13;;;8.68;;
72301;SDS011;60235;52.234;5.186;2023-08-06T04:44:13;14.15;;;7.57;;
72301;SDS011;60235;52.234;5.186;2023-08-06T04:46:39;15.48;;;8.13;;
72301;SDS011;60235;52.234;5.186;2023-08-06T04:49:05;18.27;;;7.78;;
72301;SDS011;60235;52.234;5.186;2023-08-06T04:51:31;16.75;;;8.52;;
72301;SDS011;60235;52.234;5.186;2023-08-06T04:53:57;19.30;;;8.50;;
72301;SDS011;60235;52.234;5.186;2023-08-06T04:56:23;19.60;;;8.65;;
72301;SDS011;60235;52.234;5.186;2023-08-06T04:58:49;18.52;;;8.77;;
72301;SDS011;60235;52.234;5.186;2023-08-06T05:01:16;15.77;;;7.72;;
72301;SDS011;60235;52.234;5.186;2023-08-06T05:03:42;18.63;;;8.30;;
72301;SDS011;60235;52.234;5.186;2023-08-06T05:06:08;15.32;;;8.15;;
72301;SDS011;60235;52.234;5.186;2023-08-06T05:08:34;15.38;;;7.63;;
72301;SDS011;60235;52.234;5.186;2023-08-06T05:11:00;16.50;;;7.75;;
72301;SDS011;60235;52.234;5.186;2023-08-06T05:13:26;17.70;;;8.30;;
72301;SDS011;60235;52.234;5.186;2023-08-06T05:15:55;18.35;;;8.73;;
72301;SDS011;60235;52.234;5.186;2023-08-06T05:18:21;20.90;;;8.95;;
72301;SDS011;60235;52.234;5.186;2023-08-06T05:20:47;18.08;;;7.70;;
72301;SDS011;60235;52.234;5.186;2023-08-06T05:23:13;19.80;;;8.40;;
72301;SDS011;60235;52.234;5.186;2023-08-06T05:25:39;19.20;;;8.32;;
72301;SDS011;60235;52.234;5.186;2023-08-06T05:28:05;17.63;;;7.88;;
72301;SDS011;60235;52.234;5.186;2023-08-06T05:30:31;17.98;;;8.77;;
72301;SDS011;60235;52.234;5.186;2023-08-06T05:32:57;15.65;;;8.75;;
72301;SDS011;60235;52.234;5.186;2023-08-06T05:35:23;16.60;;;8.95;;
72301;SDS011;60235;52.234;5.186;2023-08-06T05:37:50;17.42;;;8.90;;
72301;SDS011;60235;52.234;5.186;2023-08-06T05:40:16;19.15;;;9.10;;
72301;SDS011;60235;52.234;5.186;2023-08-06T05:42:42;19.33;;;9.35;;
72301;SDS011;60235;52.234;5.186;2023-08-06T05:45:08;18.67;;;9.57;;
72301;SDS011;60235;52.234;5.186;2023-08-06T05:47:34;19.70;;;10.00;;
72301;SDS011;60235;52.234;5.186;2023-08-06T05:50:00;20.33;;;10.40;;
72301;SDS011;60235;52.234;5.186;2023-08-06T05:52:26;20.45;;;10.45;;
72301;SDS011;60235;52.234;5.186;2023-08-06T05:54:52;16.85;;;7.90;;
72301;SDS011;60235;52.234;5.186;2023-08-06T05:57:20;15.07;;;7.30;;
72301;SDS011;60235;52.234;5.186;2023-08-06T05:59:46;12.98;;;5.00;;
72301;SDS011;60235;52.234;5.186;2023-08-06T06:02:12;9.90;;;4.80;;
72301;SDS011;60235;52.234;5.186;2023-08-06T06:04:38;9.68;;;3.85;;
72301;SDS011;60235;52.234;5.186;2023-08-06T06:07:04;7.57;;;3.17;;
72301;SDS011;60235;52.234;5.186;2023-08-06T06:09:30;6.93;;;3.13;;
72301;SDS011;60235;52.234;5.186;2023-08-06T06:11:56;7.45;;;3.00;;
72301;SDS011;60235;52.234;5.186;2023-08-06T06:14:22;6.97;;;2.97;;
72301;SDS011;60235;52.234;5.186;2023-08-06T06:16:48;7.05;;;2.97;;
72301;SDS011;60235;52.234;5.186;2023-08-06T06:19:14;7.40;;;2.97;;
72301;SDS011;60235;52.234;5.186;2023-08-06T06:21:40;8.02;;;2.75;;
72301;SDS011;60235;52.234;5.186;2023-08-06T06:24:06;5.85;;;2.35;;
72301;SDS011;60235;52.234;5.186;2023-08-06T06:26:33;6.20;;;2.55;;
72301;SDS011;60235;52.234;5.186;2023-08-06T06:28:59;7.30;;;2.40;;
72301;SDS011;60235;52.234;5.186;2023-08-06T06:31:25;5.20;;;1.92;;
72301;SDS011;60235;52.234;5.186;2023-08-06T06:33:51;6.10;;;1.70;;
72301;SDS011;60235;52.234;5.186;2023-08-06T06:36:19;5.28;;;2.00;;
72301;SDS011;60235;52.234;5.186;2023-08-06T06:38:45;7.40;;;1.70;;
72301;SDS011;60235;52.234;5.186;2023-08-06T06:41:11;5.80;;;2.25;;
72301;SDS011;60235;52.234;5.186;2023-08-06T06:43:37;5.47;;;2.10;;
72301;SDS011;60235;52.234;5.186;2023-08-06T06:46:04;6.10;;;1.92;;
72301;SDS011;60235;52.234;5.186;2023-08-06T06:48:32;5.00;;;1.90;;
72301;SDS011;60235;52.234;5.186;2023-08-06T06:50:58;5.70;;;1.88;;
72301;SDS011;60235;52.234;5.186;2023-08-06T06:53:24;5.78;;;2.17;;
72301;SDS011;60235;52.234;5.186;2023-08-06T06:56:04;5.25;;;2.00;;
72301;SDS011;60235;52.234;5.186;2023-08-06T06:58:30;5.30;;;1.95;;
72301;SDS011;60235;52.234;5.186;2023-08-06T07:00:56;5.63;;;2.00;;
72301;SDS011;60235;52.234;5.186;2023-08-06T07:03:22;5.38;;;2.28;;
72301;SDS011;60235;52.234;5.186;2023-08-06T07:05:49;6.43;;;2.40;;
72301;SDS011;60235;52.234;5.186;2023-08-06T07:08:15;6.50;;;2.28;;
72301;SDS011;60235;52.234;5.186;2023-08-06T07:10:42;5.55;;;2.25;;
72301;SDS011;60235;52.234;5.186;2023-08-06T07:13:08;5.68;;;2.42;;
72301;SDS011;60235;52.234;5.186;2023-08-06T07:15:34;6.10;;;2.70;;
72301;SDS011;60235;52.234;5.186;2023-08-06T07:18:00;6.40;;;2.70;;
72301;SDS011;60235;52.234;5.186;2023-08-06T07:20:26;7.35;;;2.80;;
72301;SDS011;60235;52.234;5.186;2023-08-06T07:22:56;7.03;;;2.70;;
72301;SDS011;60235;52.234;5.186;2023-08-06T07:25:22;6.53;;;3.08;;
72301;SDS011;60235;52.234;5.186;2023-08-06T07:27:48;5.20;;;1.92;;
72301;SDS011;60235;52.234;5.186;2023-08-06T07:30:14;6.30;;;2.30;;
72301;SDS011;60235;52.234;5.186;2023-08-06T07:32:40;5.28;;;1.83;;
72301;SDS011;60235;52.234;5.186;2023-08-06T07:35:06;6.13;;;2.05;;
72301;SDS011;60235;52.234;5.186;2023-08-06T07:37:34;5.78;;;2.08;;
72301;SDS011;60235;52.234;5.186;2023-08-06T07:40:00;5.82;;;2.15;;
72301;SDS011;60235;52.234;5.186;2023-08-06T07:42:26;5.25;;;1.73;;
72301;SDS011;60235;52.234;5.186;2023-08-06T07:44:53;7.20;;;2.00;;
72301;SDS011;60235;52.234;5.186;2023-08-06T07:47:20;5.75;;;2.10;;
72301;SDS011;60235;52.234;5.186;2023-08-06T07:49:46;6.93;;;2.30;;
72301;SDS011;60235;52.234;5.186;2023-08-06T07:52:12;7.25;;;2.28;;
72301;SDS011;60235;52.234;5.186;2023-08-06T07:54:38;6.20;;;1.90;;
72301;SDS011;60235;52.234;5.186;2023-08-06T07:57:04;5.78;;;2.20;;
72301;SDS011;60235;52.234;5.186;2023-08-06T07:59:30;6.78;;;2.10;;
72301;SDS011;60235;52.234;5.186;2023-08-06T08:01:56;6.85;;;2.20;;
72301;SDS011;60235;52.234;5.186;2023-08-06T08:04:23;6.68;;;2.20;;
72301;SDS011;60235;52.234;5.186;2023-08-06T08:06:49;5.40;;;2.42;;
72301;SDS011;60235;52.234;5.186;2023-08-06T08:09:15;5.38;;;2.13;;
72301;SDS011;60235;52.234;5.186;2023-08-06T08:11:41;10.60;;;2.58;;
72301;SDS011;60235;52.234;5.186;2023-08-06T08:14:07;7.90;;;2.60;;
72301;SDS011;60235;52.234;5.186;2023-08-06T08:16:33;5.97;;;2.17;;
72301;SDS011;60235;52.234;5.186;2023-08-06T08:18:59;5.75;;;2.50;;
72301;SDS011;60235;52.234;5.186;2023-08-06T08:21:25;7.57;;;2.85;;
72301;SDS011;60235;52.234;5.186;2023-08-06T08:23:51;6.35;;;2.30;;
72301;SDS011;60235;52.234;5.186;2023-08-06T08:26:17;6.78;;;2.70;;
72301;SDS011;60235;52.234;5.186;2023-08-06T08:28:43;6.97;;;2.88;;
72301;SDS011;60235;52.234;5.186;2023-08-06T08:31:10;9.13;;;3.10;;
72301;SDS011;60235;52.234;5.186;2023-08-06T08:33:36;8.02;;;2.75;;
72301;SDS011;60235;52.234;5.186;2023-08-06T08:36:02;7.45;;;3.08;;
72301;SDS011;60235;52.234;5.186;2023-08-06T08:38:29;7.70;;;2.85;;
72301;SDS011;60235;52.234;5.186;2023-08-06T08:40:55;6.80;;;3.15;;
72301;SDS011;60235;52.234;5.186;2023-08-06T08:43:21;8.15;;;3.25;;
72301;SDS011;60235;52.234;5.186;2023-08-06T08:45:51;7.70;;;3.28;;
72301;SDS011;60235;52.234;5.186;2023-08-06T08:48:17;7.35;;;3.42;;
72301;SDS011;60235;52.234;5.186;2023-08-06T08:50:44;7.13;;;3.10;;
72301;SDS011;60235;52.234;5.186;2023-08-06T08:53:11;8.75;;;3.60;;
72301;SDS011;60235;52.234;5.186;2023-08-06T08:55:37;7.43;;;3.08;;
72301;SDS011;60235;52.234;5.186;2023-08-06T08:58:03;7.07;;;3.22;;
72301;SDS011;60235;52.234;5.186;2023-08-06T09:00:29;6.90;;;3.20;;
72301;SDS011;60235;52.234;5.186;2023-08-06T09:02:56;8.48;;;3.38;;
72301;SDS011;60235;52.234;5.186;2023-08-06T09:05:22;8.77;;;2.70;;
72301;SDS011;60235;52.234;5.186;2023-08-06T09:07:49;7.45;;;2.83;;
72301;SDS011;60235;52.234;5.186;2023-08-06T09:10:16;7.63;;;3.20;;
72301;SDS011;60235;52.234;5.186;2023-08-06T09:12:43;7.85;;;3.13;;
72301;SDS011;60235;52.234;5.186;2023-08-06T09:15:09;8.13;;;3.08;;
72301;SDS011;60235;52.234;5.186;2023-08-06T09:17:36;7.03;;;2.67;;
72301;SDS011;60235;52.234;5.186;2023-08-06T09:20:09;7.75;;;3.17;;
72301;SDS011;60235;52.234;5.186;2023-08-06T09:22:35;7.45;;;3.00;;
72301;SDS011;60235;52.234;5.186;2023-08-06T09:25:01;8.40;;;3.10;;
72301;SDS011;60235;52.234;5.186;2023-08-06T09:27:28;7.50;;;3.22;;
72301;SDS011;60235;52.234;5.186;2023-08-06T09:29:54;9.82;;;3.03;;
72301;SDS011;60235;52.234;5.186;2023-08-06T09:32:20;9.00;;;3.30;;
72301;SDS011;60235;52.234;5.186;2023-08-06T09:34:46;11.00;;;3.65;;
72301;SDS011;60235;52.234;5.186;2023-08-06T09:37:12;14.02;;;5.60;;
72301;SDS011;60235;52.234;5.186;2023-08-06T09:39:39;8.18;;;3.17;;
72301;SDS011;60235;52.234;5.186;2023-08-06T09:42:06;8.18;;;3.10;;
72301;SDS011;60235;52.234;5.186;2023-08-06T09:44:32;6.25;;;2.60;;
72301;SDS011;60235;52.234;5.186;2023-08-06T09:47:00;7.57;;;3.38;;
72301;SDS011;60235;52.234;5.186;2023-08-06T09:49:27;7.57;;;2.90;;
72301;SDS011;60235;52.234;5.186;2023-08-06T09:51:53;9.75;;;3.40;;
72301;SDS011;60235;52.234;5.186;2023-08-06T09:54:24;10.27;;;3.83;;
72301;SDS011;60235;52.234;5.186;2023-08-06T09:56:52;10.15;;;3.40;;
72301;SDS011;60235;52.234;5.186;2023-08-06T09:59:18;9.10;;;4.15;;
72301;SDS011;60235;52.234;5.186;2023-08-06T10:01:44;12.75;;;3.72;;
72301;SDS011;60235;52.234;5.186;2023-08-06T10:04:11;8.48;;;3.42;;
72301;SDS011;60235;52.234;5.186;2023-08-06T10:06:41;8.77;;;3.30;;
72301;SDS011;60235;52.234;5.186;2023-08-06T10:09:08;11.38;;;3.65;;
72301;SDS011;60235;52.234;5.186;2023-08-06T10:11:35;9.35;;;3.28;;
72301;SDS011;60235;52.234;5.186;2023-08-06T10:14:08;10.05;;;3.53;;
72301;SDS011;60235;52.234;5.186;2023-08-06T10:16:36;10.05;;;3.13;;
72301;SDS011;60235;52.234;5.186;2023-08-06T10:19:03;11.25;;;3.08;;
72301;SDS011;60235;52.234;5.186;2023-08-06T10:21:32;7.40;;;2.90;;
72301;SDS011;60235;52.234;5.186;2023-08-06T10:26:29;9.00;;;3.05;;
72301;SDS011;60235;52.234;5.186;2023-08-06T10:28:56;9.43;;;2.70;;
72301;SDS011;60235;52.234;5.186;2023-08-06T10:34:06;9.38;;;2.95;;
72301;SDS011;60235;52.234;5.186;2023-08-06T10:36:33;8.48;;;2.45;;
72301;SDS011;60235;52.234;5.186;2023-08-06T10:38:59;9.70;;;2.70;;
72301;SDS011;60235;52.234;5.186;2023-08-06T10:43:51;8.10;;;2.70;;
72301;SDS011;60235;52.234;5.186;2023-08-06T10:46:25;9.18;;;2.70;;
72301;SDS011;60235;52.234;5.186;2023-08-06T10:48:52;6.93;;;2.55;;
72301;SDS011;60235;52.234;5.186;2023-08-06T10:51:18;9.18;;;2.45;;
72301;SDS011;60235;52.234;5.186;2023-08-06T10:53:45;7.65;;;2.53;;
72301;SDS011;60235;52.234;5.186;2023-08-06T10:56:12;7.07;;;2.05;;
72301;SDS011;60235;52.234;5.186;2023-08-06T10:58:39;6.88;;;2.30;;
72301;SDS011;60235;52.234;5.186;2023-08-06T11:01:05;9.25;;;2.38;;
72301;SDS011;60235;52.234;5.186;2023-08-06T11:03:31;15.15;;;5.30;;
72301;SDS011;60235;52.234;5.186;2023-08-06T11:05:59;7.80;;;2.60;;
72301;SDS011;60235;52.234;5.186;2023-08-06T11:08:26;9.85;;;2.72;;
72301;SDS011;60235;52.234;5.186;2023-08-06T11:10:52;8.65;;;2.03;;
72301;SDS011;60235;52.234;5.186;2023-08-06T11:13:18;5.18;;;1.73;;
72301;SDS011;60235;52.234;5.186;2023-08-06T11:15:45;8.82;;;1.95;;
72301;SDS011;60235;52.234;5.186;2023-08-06T11:18:11;8.45;;;1.70;;
72301;SDS011;60235;52.234;5.186;2023-08-06T11:20:37;5.47;;;1.90;;
72301;SDS011;60235;52.234;5.186;2023-08-06T11:23:04;5.68;;;1.60;;
72301;SDS011;60235;52.234;5.186;2023-08-06T11:25:30;6.30;;;2.05;;
72301;SDS011;60235;52.234;5.186;2023-08-06T11:27:56;7.15;;;2.03;;
72301;SDS011;60235;52.234;5.186;2023-08-06T11:30:22;7.22;;;1.90;;
72301;SDS011;60235;52.234;5.186;2023-08-06T11:32:48;10.95;;;2.40;;
72301;SDS011;60235;52.234;5.186;2023-08-06T11:35:15;8.45;;;2.10;;
72301;SDS011;60235;52.234;5.186;2023-08-06T11:37:47;4.85;;;1.70;;
72301;SDS011;60235;52.234;5.186;2023-08-06T11:40:14;8.98;;;2.53;;
72301;SDS011;60235;52.234;5.186;2023-08-06T11:42:40;7.10;;;2.05;;
72301;SDS011;60235;52.234;5.186;2023-08-06T11:45:07;7.43;;;1.60;;
72301;SDS011;60235;52.234;5.186;2023-08-06T11:47:37;6.25;;;1.70;;
72301;SDS011;60235;52.234;5.186;2023-08-06T11:50:03;4.95;;;1.67;;
72301;SDS011;60235;52.234;5.186;2023-08-06T11:52:29;5.65;;;1.88;;
72301;SDS011;60235;52.234;5.186;2023-08-06T11:55:00;5.82;;;1.83;;
72301;SDS011;60235;52.234;5.186;2023-08-06T11:57:29;7.10;;;1.80;;
72301;SDS011;60235;52.234;5.186;2023-08-06T11:59:57;6.22;;;1.48;;
72301;SDS011;60235;52.234;5.186;2023-08-06T12:02:23;5.72;;;1.60;;
72301;SDS011;60235;52.234;5.186;2023-08-06T12:05:02;7.25;;;2.10;;
72301;SDS011;60235;52.234;5.186;2023-08-06T12:07:30;6.53;;;2.17;;
72301;SDS011;60235;52.234;5.186;2023-08-06T12:09:56;8.00;;;2.20;;
72301;SDS011;60235;52.234;5.186;2023-08-06T12:12:22;9.75;;;3.25;;
72301;SDS011;60235;52.234;5.186;2023-08-06T12:14:49;6.32;;;2.60;;
72301;SDS011;60235;52.234;5.186;2023-08-06T12:17:15;5.45;;;1.95;;
72301;SDS011;60235;52.234;5.186;2023-08-06T12:19:41;7.85;;;3.60;;
72301;SDS011;60235;52.234;5.186;2023-08-06T12:22:07;24.23;;;11.98;;
72301;SDS011;60235;52.234;5.186;2023-08-06T12:24:33;13.32;;;5.72;;
72301;SDS011;60235;52.234;5.186;2023-08-06T12:26:59;6.10;;;1.90;;
72301;SDS011;60235;52.234;5.186;2023-08-06T12:29:27;7.43;;;2.60;;
72301;SDS011;60235;52.234;5.186;2023-08-06T12:31:53;7.85;;;2.50;;
72301;SDS011;60235;52.234;5.186;2023-08-06T12:34:19;6.97;;;2.88;;
72301;SDS011;60235;52.234;5.186;2023-08-06T12:36:45;8.63;;;2.17;;
72301;SDS011;60235;52.234;5.186;2023-08-06T12:39:11;9.75;;;5.55;;
72301;SDS011;60235;52.234;5.186;2023-08-06T12:41:38;6.40;;;2.75;;
72301;SDS011;60235;52.234;5.186;2023-08-06T12:44:04;8.85;;;3.80;;
72301;SDS011;60235;52.234;5.186;2023-08-06T12:46:30;8.35;;;3.75;;
72301;SDS011;60235;52.234;5.186;2023-08-06T12:48:56;7.18;;;3.65;;
72301;SDS011;60235;52.234;5.186;2023-08-06T12:51:23;7.35;;;2.75;;
72301;SDS011;60235;52.234;5.186;2023-08-06T12:53:49;8.93;;;2.47;;
72301;SDS011;60235;52.234;5.186;2023-08-06T12:56:15;8.35;;;1.90;;
72301;SDS011;60235;52.234;5.186;2023-08-06T12:58:41;6.60;;;1.88;;
72301;SDS011;60235;52.234;5.186;2023-08-06T13:01:07;11.88;;;2.45;;
72301;SDS011;60235;52.234;5.186;2023-08-06T13:03:33;9.30;;;2.03;;
72301;SDS011;60235;52.234;5.186;2023-08-06T13:05:59;6.75;;;2.00;;
72301;SDS011;60235;52.234;5.186;2023-08-06T13:08:25;6.60;;;2.13;;
72301;SDS011;60235;52.234;5.186;2023-08-06T13:10:51;5.70;;;2.05;;
72301;SDS011;60235;52.234;5.186;2023-08-06T13:13:17;6.88;;;2.13;;
72301;SDS011;60235;52.234;5.186;2023-08-06T13:15:43;6.15;;;1.90;;
72301;SDS011;60235;52.234;5.186;2023-08-06T13:18:09;6.57;;;1.90;;
72301;SDS011;60235;52.234;5.186;2023-08-06T13:20:37;7.57;;;1.98;;
72301;SDS011;60235;52.234;5.186;2023-08-06T13:23:05;8.07;;;2.30;;
72301;SDS011;60235;52.234;5.186;2023-08-06T13:25:31;10.57;;;2.53;;
72301;SDS011;60235;52.234;5.186;2023-08-06T13:28:01;10.75;;;2.55;;
72301;SDS011;60235;52.234;5.186;2023-08-06T13:30:27;6.78;;;2.08;;
72301;SDS011;60235;52.234;5.186;2023-08-06T13:32:53;5.88;;;1.70;;
72301;SDS011;60235;52.234;5.186;2023-08-06T13:35:21;7.45;;;1.73;;
72301;SDS011;60235;52.234;5.186;2023-08-06T13:37:47;5.63;;;2.00;;
72301;SDS011;60235;52.234;5.186;2023-08-06T13:40:13;8.85;;;1.92;;
72301;SDS011;60235;52.234;5.186;2023-08-06T13:42:39;6.05;;;1.90;;
72301;SDS011;60235;52.234;5.186;2023-08-06T13:45:06;7.72;;;1.77;;
72301;SDS011;60235;52.234;5.186;2023-08-06T13:47:32;5.75;;;1.73;;
72301;SDS011;60235;52.234;5.186;2023-08-06T13:49:58;5.78;;;1.85;;
72301;SDS011;60235;52.234;5.186;2023-08-06T13:52:27;12.00;;;1.92;;
72301;SDS011;60235;52.234;5.186;2023-08-06T13:54:52;6.05;;;1.77;;
72301;SDS011;60235;52.234;5.186;2023-08-06T13:57:18;6.45;;;1.80;;
72301;SDS011;60235;52.234;5.186;2023-08-06T13:59:44;7.72;;;2.08;;
72301;SDS011;60235;52.234;5.186;2023-08-06T14:02:10;7.05;;;2.03;;
72301;SDS011;60235;52.234;5.186;2023-08-06T14:04:37;5.78;;;1.80;;
72301;SDS011;60235;52.234;5.186;2023-08-06T14:07:05;8.85;;;1.73;;
72301;SDS011;60235;52.234;5.186;2023-08-06T14:09:31;7.10;;;2.10;;
72301;SDS011;60235;52.234;5.186;2023-08-06T14:11:59;6.22;;;1.80;;
72301;SDS011;60235;52.234;5.186;2023-08-06T14:14:25;7.95;;;2.40;;
72301;SDS011;60235;52.234;5.186;2023-08-06T14:16:54;7.35;;;1.80;;
72301;SDS011;60235;52.234;5.186;2023-08-06T14:21:46;6.70;;;2.05;;
72301;SDS011;60235;52.234;5.186;2023-08-06T14:24:12;4.88;;;1.73;;
72301;SDS011;60235;52.234;5.186;2023-08-06T14:26:38;5.60;;;1.80;;
72301;SDS011;60235;52.234;5.186;2023-08-06T14:29:04;5.45;;;1.40;;
72301;SDS011;60235;52.234;5.186;2023-08-06T14:31:30;4.88;;;1.50;;
72301;SDS011;60235;52.234;5.186;2023-08-06T14:33:56;6.18;;;2.00;;
72301;SDS011;60235;52.234;5.186;2023-08-06T14:36:22;7.70;;;1.70;;
72301;SDS011;60235;52.234;5.186;2023-08-06T14:38:48;5.53;;;1.40;;
72301;SDS011;60235;52.234;5.186;2023-08-06T14:41:14;6.32;;;1.60;;
72301;SDS011;60235;52.234;5.186;2023-08-06T14:43:40;5.65;;;1.50;;
72301;SDS011;60235;52.234;5.186;2023-08-06T14:46:06;5.03;;;1.38;;
72301;SDS011;60235;52.234;5.186;2023-08-06T14:48:32;4.53;;;1.15;;
72301;SDS011;60235;52.234;5.186;2023-08-06T14:50:58;5.35;;;1.35;;
72301;SDS011;60235;52.234;5.186;2023-08-06T14:53:24;7.28;;;1.30;;